Flight Track Log - Related Links

Times and Time Zones

All times are in EDT time to prevent confusion due to time zone crossing. See the SWA655 flight status page for this flight to view local times or setup timezone preferences in your user account.

Time Position Orientation Groundspeed Altitude Reporting Facility
EDT Latitude Longitude Course Direction KTS MPH feet Rate Location/Type
Tue 02:24:51 PM 33.6667 -117.8833 196° South 137 158 1,400  Level Southern California TRACON
Tue 02:25:51 PM 33.6167 -117.9000 196° South 152 175 2,800 1,050 Climbing Southern California TRACON
Tue 02:26:51 PM 33.5833 -117.9167 203° Southwest 173 199 3,500 1,150 Climbing Southern California TRACON
Tue 02:27:51 PM 33.5333 -117.9500 209° Southwest 216 249 5,100 2,390 Climbing Southern California TRACON
Tue 02:28:54 PM 33.4756 -117.9969 214° Southwest 242 278 8,400 3,072 Climbing Los Angeles Center
Tue 02:29:56 PM 33.4039 -118.0531 213° Southwest 290 334 11,500 2,903 Climbing Los Angeles Center
Tue 02:30:58 PM 33.3397 -118.1369 228° Southwest 342 394 14,400 3,387 Climbing Los Angeles Center
Tue 02:32:00 PM 33.3550 -118.2789 277° West 356 410 18,500 3,591 Climbing Los Angeles Center
Tue 02:33:15 PM 33.4075 -118.4086 296° West 381 438 22,600 3,022 Climbing Los Angeles Center
Tue 02:34:17 PM 33.5161 -118.4239 353° North 402 463 25,400 2,419 Climbing Los Angeles Center
Tue 02:35:19 PM 33.6342 -118.4264 359° North 416 479 27,600 2,032 Climbing Los Angeles Center
Tue 02:36:21 PM 33.7578 -118.4289 359° North 436 502 29,600 2,177 Climbing Los Angeles Center
Tue 02:37:23 PM 33.8889 -118.4322 359° North 444 511 32,100 2,274 Climbing Los Angeles Center
Tue 02:38:25 PM 34.0036 -118.4664 346° North 424 488 34,300 1,887 Climbing Los Angeles Center
Tue 02:39:27 PM 34.1142 -118.5206 338° Northwest 429 494 36,000 1,790 Climbing Los Angeles Center
Tue 02:40:29 PM 34.2464 -118.5861 338° Northwest 427 491 38,000 960 Climbing Los Angeles Center
Tue 02:41:32 PM 34.3553 -118.6392 338° Northwest 423 487 38,000  Level Los Angeles Center
Tue 02:42:34 PM 34.4639 -118.6942 337° Northwest 424 488 38,000  Level Los Angeles Center
Tue 02:43:36 PM 34.5717 -118.7461 338° Northwest 419 482 38,000  Level Los Angeles Center
Tue 02:44:38 PM 34.6783 -118.8047 336° Northwest 421 484 38,000  Level Los Angeles Center
Tue 02:45:40 PM 34.7686 -118.8903 322° Northwest 415 478 38,000  Level Los Angeles Center
Tue 02:46:42 PM 34.8767 -118.9928 322° Northwest 411 473 38,000  Level Los Angeles Center
Tue 02:47:44 PM 34.9678 -119.0767 323° Northwest 410 472 38,000  Level Los Angeles Center
Tue 02:48:46 PM 35.0581 -119.1625 322° Northwest 414 476 38,000  Level Los Angeles Center
Tue 02:49:49 PM 35.1486 -119.2458 323° Northwest 410 472 38,000  Level Los Angeles Center
Tue 02:50:51 PM 35.2408 -119.3350 322° Northwest 421 484 38,000  Level Los Angeles Center
Tue 02:51:53 PM 35.3519 -119.4392 323° Northwest 423 487 38,000  Level Los Angeles Center
Tue 02:53:00 PM 35.4389 -119.5261 321° Northwest 419 482 38,000  Level Oakland Center
Tue 02:54:01 PM 35.5314 -119.6125 323° Northwest 420 483 38,000  Level Oakland Center
Tue 02:55:02 PM 35.6208 -119.7011 321° Northwest 418 481 38,000  Level Oakland Center
Tue 02:56:03 PM 35.7311 -119.8058 322° Northwest 419 482 38,000  Level Oakland Center
Tue 02:57:05 PM 35.8217 -119.8936 322° Northwest 418 481 38,000  Level Oakland Center
Tue 02:58:06 PM 35.9108 -119.9814 321° Northwest 416 479 38,000  Level Oakland Center
Tue 02:59:07 PM 36.0014 -120.0692 322° Northwest 417 480 38,000  Level Oakland Center
Tue 03:00:08 PM 36.0925 -120.1583 322° Northwest 419 482 38,000  Level Oakland Center
Tue 03:01:10 PM 36.1828 -120.2481 321° Northwest 418 481 38,000  Level Oakland Center
Tue 03:02:11 PM 36.2731 -120.3364 322° Northwest 415 478 38,000 -492 Level Oakland Center
Tue 03:03:12 PM 36.3622 -120.4261 321° Northwest 414 476 37,000 -1,475 Descending Oakland Center
Tue 03:04:13 PM 36.4697 -120.5289 322° Northwest 408 470 35,000 -1,820 Descending Oakland Center
Tue 03:05:14 PM 36.5594 -120.6219 320° Northwest 420 483 33,300 -2,049 Descending Oakland Center
Tue 03:06:16 PM 36.6514 -120.7169 320° Northwest 429 494 30,800 -2,683 Descending Oakland Center
Tue 03:07:17 PM 36.7425 -120.8097 321° Northwest 423 487 27,800 -2,754 Descending Oakland Center
Tue 03:08:18 PM 36.8267 -120.9003 319° Northwest 407 468 25,200 -2,557 Descending Oakland Center
Tue 03:09:19 PM 36.9061 -120.9936 317° Northwest 395 455 22,600 -2,585 Descending Oakland Center
Tue 03:10:21 PM 36.9833 -121.0844 317° Northwest 383 441 19,900 -2,780 Descending Oakland Center
Tue 03:11:22 PM 37.0669 -121.1792 318° Northwest 372 428 16,900 -2,607 Descending Oakland Center
Tue 03:12:23 PM 37.1344 -121.2575 317° Northwest 368 423 14,600 -2,508 Descending Oakland Center
Tue 03:13:24 PM 37.2211 -121.3583 317° Northwest 356 410 11,800 -2,146 Descending Oakland Center
Tue 03:14:26 PM 37.2892 -121.4381 317° Northwest 340 391 10,200 -1,268 Descending Oakland Center
Tue 03:15:27 PM 37.3511 -121.5089 318° Northwest 305 351 9,200 -1,220 Descending Oakland Center
Tue 03:16:24 PM 37.4000 -121.5833 310° West 283 326 7,800 -1,128 Descending Northern Cal TRACON
Tue 03:17:24 PM 37.4667 -121.6500 322° Northwest 280 322 7,000 -750 Descending Northern Cal TRACON
Tue 03:18:24 PM 37.5000 -121.7167 302° West 279 321 6,300 -750 Descending Northern Cal TRACON
Tue 03:19:24 PM 37.5333 -121.8167 293° West 275 316 5,500 -750 Descending Northern Cal TRACON
Tue 03:20:24 PM 37.5667 -121.9000 297° West 269 310 4,800 -950 Descending Northern Cal TRACON
Tue 03:21:24 PM 37.5833 -121.9833 284° West 252 290 3,600 -1,150 Descending Northern Cal TRACON
Tue 03:22:24 PM 37.6000 -122.0500 288° West 198 228 2,500 -700 Descending Northern Cal TRACON
Tue 03:23:24 PM 37.6333 -122.1000 310° West 135 155 2,200 -500 Descending Northern Cal TRACON
Tue 03:24:24 PM 37.6500 -122.1333 302° West 135 155 1,500 -650 Descending Northern Cal TRACON
Tue 03:25:24 PM 37.6667 -122.1667 302° West 130 150 900 -632 Descending Northern Cal TRACON
Tue 03:25:40 PM 37.6744 -122.1744 322° Northwest 136 157 700 -623 Descending Oakland Center
Tue 03:26:41 PM 37.6967 -122.2078 310° West 129 148 100 -590 Descending Oakland Center
Tue 03:28:00 PM 37.7167 -122.2167 270° West  Level FlightAware Approximate
Tue 03:35:00 PM 37.7213 -122.2207 270° West  Level Estimated

Login

Don't have an account? Register now (free) for customized features, flight alerts, and more!